Lila Mae — WDI7486 — position and weather

sailwx.info

Track history (hours):
 
Tides and Currents Weather Stations Pressure Air Temp Water Temp Dewpoint Dewpoint Depression Visibility Wind Speed Wind Dir Waves Ship Positions

Lila Mae

Owner: Pinnacle III, LP, Pasadena, TX. More information available from US FCC via Universal Licensing System and Coast Guard Vessel Documentation Center.

Last reported at 2018-Jul-17 10:57 UTC. Time now 2018-Jul-17 11:17 UTC.
Position N 29°28' W 094°58'.

Length 28 m; draft 3 m.

MMSI: 367729220.

Date/timePositionNaut miles runAvg speedWind from/ knotsBaromVisibWave heightAir tempDewpointWater temp
2018-Jul-17 10:57N 29°28' W 094°58'0 0.0
2018-Jul-17 09:53N 29°28' W 094°58'0 0.0
2018-Jul-17 09:17N 29°28' W 094°58'0 0.0
2018-Jul-17 09:00N 29°28' W 094°58'0 0.0
2018-Jul-17 08:26N 29°28' W 094°58'0 0.0
2018-Jul-17 07:53N 29°28' W 094°58'0 0.0
2018-Jul-17 07:30N 29°28' W 094°58'0 0.0
2018-Jul-17 07:00N 29°28' W 094°58'0 0.0
2018-Jul-17 06:30N 29°28' W 094°58'0 0.0
2018-Jul-17 06:00N 29°28' W 094°58'0 0.0
2018-Jul-17 05:30N 29°28' W 094°58'0 0.0
2018-Jul-17 04:33N 29°28' W 094°58'0 0.0
2018-Jul-17 04:30N 29°28' W 094°58'0 0.0
2018-Jul-17 03:57N 29°28' W 094°58'0 0.0
2018-Jul-17 03:30N 29°28' W 094°58'  
2018-Jul-14 03:52N 29°18' W 094°51'0 0.1
2018-Jul-13 21:49N 29°18' W 094°51'0 0.0
2018-Jul-13 21:03N 29°18' W 094°51'0 0.1
2018-Jul-13 20:59N 29°18' W 094°51'0 0.0
2018-Jul-13 20:17N 29°18' W 094°51'0 0.0
2018-Jul-13 19:44N 29°18' W 094°51'0 0.0
2018-Jul-13 19:24N 29°18' W 094°51'0 0.0
2018-Jul-13 18:55N 29°18' W 094°51'0 0.0
2018-Jul-13 18:28N 29°18' W 094°51'0 0.0
2018-Jul-13 17:53N 29°18' W 094°51'0 0.1
2018-Jul-13 17:27N 29°18' W 094°51'0 0.5
2018-Jul-13 16:57N 29°18' W 094°51'2 3.7
2018-Jul-13 16:30N 29°18' W 094°53'2 4.2
2018-Jul-13 15:59N 29°17' W 094°55'2 4.8
2018-Jul-13 15:30N 29°17' W 094°58'1 2.4
2018-Jul-13 15:00N 29°16' W 094°59'0 0.0
2018-Jul-13 14:30N 29°16' W 094°59'5 4.0
2018-Jul-13 13:22N 29°17' W 094°54'2 5.8
2018-Jul-13 12:57N 29°18' W 094°51'1 0.1
2018-Jul-13 00:38N 29°18' W 094°51'0 1.0
2018-Jul-13 00:26N 29°18' W 094°51'  
2018-Jul-09 22:28N 29°28' W 094°58'11 1.9
2018-Jul-09 16:40N 29°18' W 094°53'5 4.8
2018-Jul-09 15:38N 29°17' W 094°59'0 1.2
2018-Jul-09 15:29N 29°16' W 094°59'2 4.9
2018-Jul-09 15:00N 29°15' W 095°01'3 5.1
2018-Jul-09 14:30N 29°13' W 095°02'3 5.4
2018-Jul-09 14:00N 29°11' W 095°05'3 5.2
2018-Jul-09 13:30N 29°10' W 095°07'2 4.4
2018-Jul-09 13:00N 29°09' W 095°10'3 5.4
2018-Jul-09 12:29N 29°07' W 095°12'  
Track history (hours):
 
Tides and Currents Weather Stations Pressure Air Temp Water Temp Dewpoint Dewpoint Depression Visibility Wind Speed Wind Dir Waves Ship Positions

Lila Mae

Owner: Pinnacle III, LP, Pasadena, TX. More information available from US FCC via Universal Licensing System and Coast Guard Vessel Documentation Center.

Last reported at 2018-Jul-17 10:57 UTC. Time now 2018-Jul-17 11:17 UTC.
Position N 29°28' W 094°58'.

Length 28 m; draft 3 m.

MMSI: 367729220.

Date/timePositionNaut miles runAvg speedWind from/ knotsBaromVisibWave heightAir tempDewpointWater temp
2018-Jul-17 10:57N 29°28' W 094°58'0 0.0
2018-Jul-17 09:53N 29°28' W 094°58'0 0.0
2018-Jul-17 09:17N 29°28' W 094°58'0 0.0
2018-Jul-17 09:00N 29°28' W 094°58'0 0.0
2018-Jul-17 08:26N 29°28' W 094°58'0 0.0
2018-Jul-17 07:53N 29°28' W 094°58'0 0.0
2018-Jul-17 07:30N 29°28' W 094°58'0 0.0
2018-Jul-17 07:00N 29°28' W 094°58'0 0.0
2018-Jul-17 06:30N 29°28' W 094°58'0 0.0
2018-Jul-17 06:00N 29°28' W 094°58'0 0.0
2018-Jul-17 05:30N 29°28' W 094°58'0 0.0
2018-Jul-17 04:33N 29°28' W 094°58'0 0.0
2018-Jul-17 04:30N 29°28' W 094°58'0 0.0
2018-Jul-17 03:57N 29°28' W 094°58'0 0.0
2018-Jul-17 03:30N 29°28' W 094°58'  
2018-Jul-14 03:52N 29°18' W 094°51'0 0.1
2018-Jul-13 21:49N 29°18' W 094°51'0 0.0
2018-Jul-13 21:03N 29°18' W 094°51'0 0.1
2018-Jul-13 20:59N 29°18' W 094°51'0 0.0
2018-Jul-13 20:17N 29°18' W 094°51'0 0.0
2018-Jul-13 19:44N 29°18' W 094°51'0 0.0
2018-Jul-13 19:24N 29°18' W 094°51'0 0.0
2018-Jul-13 18:55N 29°18' W 094°51'0 0.0
2018-Jul-13 18:28N 29°18' W 094°51'0 0.0
2018-Jul-13 17:53N 29°18' W 094°51'0 0.1
2018-Jul-13 17:27N 29°18' W 094°51'0 0.5
2018-Jul-13 16:57N 29°18' W 094°51'2 3.7
2018-Jul-13 16:30N 29°18' W 094°53'2 4.2
2018-Jul-13 15:59N 29°17' W 094°55'2 4.8
2018-Jul-13 15:30N 29°17' W 094°58'1 2.4
2018-Jul-13 15:00N 29°16' W 094°59'0 0.0
2018-Jul-13 14:30N 29°16' W 094°59'5 4.0
2018-Jul-13 13:22N 29°17' W 094°54'2 5.8
2018-Jul-13 12:57N 29°18' W 094°51'1 0.1
2018-Jul-13 00:38N 29°18' W 094°51'0 1.0
2018-Jul-13 00:26N 29°18' W 094°51'  
2018-Jul-09 22:28N 29°28' W 094°58'11 1.9
2018-Jul-09 16:40N 29°18' W 094°53'5 4.8
2018-Jul-09 15:38N 29°17' W 094°59'0 1.2
2018-Jul-09 15:29N 29°16' W 094°59'2 4.9
2018-Jul-09 15:00N 29°15' W 095°01'3 5.1
2018-Jul-09 14:30N 29°13' W 095°02'3 5.4
2018-Jul-09 14:00N 29°11' W 095°05'3 5.2
2018-Jul-09 13:30N 29°10' W 095°07'2 4.4
2018-Jul-09 13:00N 29°09' W 095°10'3 5.4
2018-Jul-09 12:29N 29°07' W 095°12'  

Dump ship's entire track history